Etusivu
METAR-TAF:

METAR-TAF

Lentoasemat :

Bermuda, Bermuda

Leveyspiiri: 32-22N, Pituuspiiri: 064-41W, korkeus merenpinnasta: 6 m

Tämänhetkinen sää

Tämä raportti tehtiin 25 minuuttia sitten, kello 04.55 UTC
Tuuli 9 kn lounaasta
Lämpötila 26°C
Kosteus 84%
Ilmanpaine 1023 hPa
Näkyvyys 10 km tai enemmän
Muutamia pilviä 2400 ft:n korkeudessa
Hajanaisia pilviä 15000 ft:n korkeudessa
Hajanaisia pilviä 30000 ft:n korkeudessa

METAR: TXKF 250455Z 23009KT 9999 FEW024 SCT150 SCT300 26/23 Q1023

Aika: 02:20 (05:20 UTC)

Sääennuste

Tämä raportti tehtiin 5 tuntia ja 45 minuuttia sitten, kello 23.35 UTC
Ennuste voimassa 25. päivästä klo 00 UTC - 25. päivään klo 24 UTC
Tuuli 8 kn lounaasta
Näkyvyys 10 km tai enemmän
Muutamia pilviä 1500 ft:n korkeudessa
Hajanaisia pilviä 15000 ft:n korkeudessa
Hajonneita pilviä 30000 ft:n korkeudessa

TAF: TXKF 242335Z 2500/2524 23008KT 9999 FEW015 SCT150 BKN300

Säähavainnot ja -ennusteet yli 4000 lentoasemalta (METAR- ja TAF-raportit).

Käytössä olevat sääasemat on merkitty karttaan keltaisilla ja punaisilla pisteillä.

Aseta hiiri pisteen päälle nähdäksesi sääaseman nimen.

Klikkaa sitten nähdäksesi säähavainnot ja -ennusteet.

Kartan vaihtaminen: klikkaa mustalla rastilla varustettuja vihreitä pisteitä, niin voit zoomata sisään; viivalla varustettua vihreää pistettä, niin voit zoomata ulos tai vihreitä nuolia, niin pääset viereisille kartoille.


METAR-TAF: